Terminal Aerodrome Forecast
Issued by NWS

Home | Current Version | Previous Version | Text Only | Print | Product List | Glossary On
Versions: 1 2 3 4 5 6 7 8 9 10 11 12 13 14 15 16
022
FTUS41 KBGM 230539
TAFRME
TAF
KRME 230539Z 2306/2406 VRB03KT P6SM BKN100
      TEMPO 2308/2312 4SM BR
     FM231200 11005KT P6SM BKN100
     FM240100 11006KT P6SM -SHRA OVC045
     FM240400 11006KT 4SM -SHRA BR OVC030=

USA.gov is the U.S. government's official web portal to all federal, state and local government web resources and services.